sensor_id;sensor_type;location;lat;lon;timestamp;P1;durP1;ratioP1;P2;durP2;ratioP2
57323;SDS011;43160;51.008;18.248;2023-05-10T00:02:06;11.50;;;5.30;;
57323;SDS011;43160;51.008;18.248;2023-05-10T00:11:50;12.00;;;4.30;;
57323;SDS011;43160;51.008;18.248;2023-05-10T00:21:33;17.30;;;5.40;;
57323;SDS011;43160;51.008;18.248;2023-05-10T00:31:16;11.80;;;4.80;;
57323;SDS011;43160;51.008;18.248;2023-05-10T00:41:00;17.00;;;4.90;;
57323;SDS011;43160;51.008;18.248;2023-05-10T00:50:43;15.30;;;5.00;;
57323;SDS011;43160;51.008;18.248;2023-05-10T01:00:27;13.70;;;5.20;;
57323;SDS011;43160;51.008;18.248;2023-05-10T01:10:11;19.60;;;5.70;;
57323;SDS011;43160;51.008;18.248;2023-05-10T01:19:56;12.60;;;5.20;;
57323;SDS011;43160;51.008;18.248;2023-05-10T01:50:42;12.30;;;4.00;;
57323;SDS011;43160;51.008;18.248;2023-05-10T02:00:32;13.00;;;5.70;;
57323;SDS011;43160;51.008;18.248;2023-05-10T02:10:16;11.40;;;4.90;;
57323;SDS011;43160;51.008;18.248;2023-05-10T02:20:03;12.30;;;5.50;;
57323;SDS011;43160;51.008;18.248;2023-05-10T02:29:53;14.00;;;5.50;;
57323;SDS011;43160;51.008;18.248;2023-05-10T02:39:37;15.70;;;6.80;;
57323;SDS011;43160;51.008;18.248;2023-05-10T02:49:23;16.40;;;7.10;;
57323;SDS011;43160;51.008;18.248;2023-05-10T02:59:17;16.30;;;7.20;;
57323;SDS011;43160;51.008;18.248;2023-05-10T03:09:00;16.90;;;6.00;;
57323;SDS011;43160;51.008;18.248;2023-05-10T03:19:06;13.80;;;5.90;;
57323;SDS011;43160;51.008;18.248;2023-05-10T03:28:57;12.40;;;5.30;;
57323;SDS011;43160;51.008;18.248;2023-05-10T03:38:42;13.00;;;5.00;;
57323;SDS011;43160;51.008;18.248;2023-05-10T03:48:27;16.10;;;6.10;;
57323;SDS011;43160;51.008;18.248;2023-05-10T03:58:10;16.40;;;6.40;;
57323;SDS011;43160;51.008;18.248;2023-05-10T04:07:54;16.70;;;7.50;;
57323;SDS011;43160;51.008;18.248;2023-05-10T04:17:38;16.80;;;5.10;;
57323;SDS011;43160;51.008;18.248;2023-05-10T04:27:23;14.00;;;4.80;;
57323;SDS011;43160;51.008;18.248;2023-05-10T04:37:07;12.90;;;5.40;;
57323;SDS011;43160;51.008;18.248;2023-05-10T04:46:50;16.40;;;6.00;;
57323;SDS011;43160;51.008;18.248;2023-05-10T04:56:35;22.40;;;9.10;;
57323;SDS011;43160;51.008;18.248;2023-05-10T05:06:19;24.60;;;9.70;;
57323;SDS011;43160;51.008;18.248;2023-05-10T05:16:04;16.40;;;7.50;;
57323;SDS011;43160;51.008;18.248;2023-05-10T05:25:53;4.50;;;2.00;;
57323;SDS011;43160;51.008;18.248;2023-05-10T05:35:36;11.10;;;4.40;;
57323;SDS011;43160;51.008;18.248;2023-05-10T05:45:20;10.50;;;4.60;;
57323;SDS011;43160;51.008;18.248;2023-05-10T05:55:04;13.10;;;4.70;;
57323;SDS011;43160;51.008;18.248;2023-05-10T06:04:48;11.20;;;3.60;;
57323;SDS011;43160;51.008;18.248;2023-05-10T06:14:31;11.90;;;4.40;;
57323;SDS011;43160;51.008;18.248;2023-05-10T06:24:14;11.20;;;4.10;;
57323;SDS011;43160;51.008;18.248;2023-05-10T06:33:57;9.70;;;4.00;;
57323;SDS011;43160;51.008;18.248;2023-05-10T06:43:42;9.90;;;3.70;;
57323;SDS011;43160;51.008;18.248;2023-05-10T06:53:26;9.40;;;3.40;;
57323;SDS011;43160;51.008;18.248;2023-05-10T07:03:10;11.20;;;3.40;;
57323;SDS011;43160;51.008;18.248;2023-05-10T07:12:53;11.40;;;3.00;;
57323;SDS011;43160;51.008;18.248;2023-05-10T07:22:37;13.30;;;3.20;;
57323;SDS011;43160;51.008;18.248;2023-05-10T07:32:22;9.40;;;3.30;;
57323;SDS011;43160;51.008;18.248;2023-05-10T07:34:48;10.10;;;3.70;;
57323;SDS011;43160;51.008;18.248;2023-05-10T07:44:31;3.00;;;1.60;;
57323;SDS011;43160;51.008;18.248;2023-05-10T07:54:15;14.20;;;3.40;;
57323;SDS011;43160;51.008;18.248;2023-05-10T08:04:05;12.60;;;3.00;;
57323;SDS011;43160;51.008;18.248;2023-05-10T08:13:49;6.50;;;2.50;;
57323;SDS011;43160;51.008;18.248;2023-05-10T08:23:36;10.00;;;3.30;;
57323;SDS011;43160;51.008;18.248;2023-05-10T08:33:20;9.00;;;3.30;;
57323;SDS011;43160;51.008;18.248;2023-05-10T08:43:07;11.90;;;3.50;;
57323;SDS011;43160;51.008;18.248;2023-05-10T08:52:57;8.70;;;2.80;;
57323;SDS011;43160;51.008;18.248;2023-05-10T09:02:43;9.20;;;2.80;;
57323;SDS011;43160;51.008;18.248;2023-05-10T09:12:30;10.40;;;3.10;;
57323;SDS011;43160;51.008;18.248;2023-05-10T09:22:15;9.40;;;3.10;;
57323;SDS011;43160;51.008;18.248;2023-05-10T09:32:07;9.00;;;2.90;;
57323;SDS011;43160;51.008;18.248;2023-05-10T09:42:09;10.40;;;2.90;;
57323;SDS011;43160;51.008;18.248;2023-05-10T09:52:00;8.70;;;2.50;;
57323;SDS011;43160;51.008;18.248;2023-05-10T10:01:50;6.80;;;2.70;;
57323;SDS011;43160;51.008;18.248;2023-05-10T10:11:35;6.00;;;1.80;;
57323;SDS011;43160;51.008;18.248;2023-05-10T10:21:23;11.90;;;2.70;;
57323;SDS011;43160;51.008;18.248;2023-05-10T10:41:54;9.40;;;3.20;;
57323;SDS011;43160;51.008;18.248;2023-05-10T10:52:24;7.10;;;2.60;;
57323;SDS011;43160;51.008;18.248;2023-05-10T11:02:43;8.50;;;3.50;;
57323;SDS011;43160;51.008;18.248;2023-05-10T11:13:01;11.00;;;3.60;;
57323;SDS011;43160;51.008;18.248;2023-05-10T11:22:50;7.80;;;3.00;;
57323;SDS011;43160;51.008;18.248;2023-05-10T11:32:39;9.20;;;2.80;;
57323;SDS011;43160;51.008;18.248;2023-05-10T11:42:27;8.90;;;2.80;;
57323;SDS011;43160;51.008;18.248;2023-05-10T11:52:12;10.00;;;2.90;;
57323;SDS011;43160;51.008;18.248;2023-05-10T12:01:55;4.50;;;1.70;;
57323;SDS011;43160;51.008;18.248;2023-05-10T12:11:39;8.20;;;2.80;;
57323;SDS011;43160;51.008;18.248;2023-05-10T12:21:24;10.10;;;2.90;;
57323;SDS011;43160;51.008;18.248;2023-05-10T12:31:09;8.10;;;3.00;;
57323;SDS011;43160;51.008;18.248;2023-05-10T12:41:08;18.20;;;3.10;;
57323;SDS011;43160;51.008;18.248;2023-05-10T12:50:56;10.30;;;3.50;;
57323;SDS011;43160;51.008;18.248;2023-05-10T13:00:39;9.10;;;3.30;;
57323;SDS011;43160;51.008;18.248;2023-05-10T13:10:26;9.00;;;3.50;;
57323;SDS011;43160;51.008;18.248;2023-05-10T13:27:28;8.70;;;2.90;;
57323;SDS011;43160;51.008;18.248;2023-05-10T13:44:29;10.70;;;3.20;;
57323;SDS011;43160;51.008;18.248;2023-05-10T13:54:13;8.00;;;2.20;;
57323;SDS011;43160;51.008;18.248;2023-05-10T14:03:59;8.70;;;3.20;;
57323;SDS011;43160;51.008;18.248;2023-05-10T14:13:45;7.10;;;2.30;;
57323;SDS011;43160;51.008;18.248;2023-05-10T14:23:29;19.40;;;3.00;;
57323;SDS011;43160;51.008;18.248;2023-05-10T14:33:13;9.70;;;2.80;;
57323;SDS011;43160;51.008;18.248;2023-05-10T14:42:56;9.20;;;2.40;;
57323;SDS011;43160;51.008;18.248;2023-05-10T14:52:41;9.50;;;2.70;;
57323;SDS011;43160;51.008;18.248;2023-05-10T15:02:25;8.70;;;3.20;;
57323;SDS011;43160;51.008;18.248;2023-05-10T15:12:12;8.90;;;3.10;;
57323;SDS011;43160;51.008;18.248;2023-05-10T15:21:58;7.20;;;2.90;;
57323;SDS011;43160;51.008;18.248;2023-05-10T15:31:48;6.70;;;2.50;;
57323;SDS011;43160;51.008;18.248;2023-05-10T15:41:34;8.20;;;2.50;;
57323;SDS011;43160;51.008;18.248;2023-05-10T15:51:18;8.30;;;2.50;;
57323;SDS011;43160;51.008;18.248;2023-05-10T16:01:03;8.50;;;3.20;;
57323;SDS011;43160;51.008;18.248;2023-05-10T16:10:50;8.00;;;2.20;;
57323;SDS011;43160;51.008;18.248;2023-05-10T16:20:34;9.00;;;3.30;;
57323;SDS011;43160;51.008;18.248;2023-05-10T16:30:19;8.70;;;3.20;;
57323;SDS011;43160;51.008;18.248;2023-05-10T16:40:02;9.70;;;3.00;;
57323;SDS011;43160;51.008;18.248;2023-05-10T16:49:48;10.10;;;3.80;;
57323;SDS011;43160;51.008;18.248;2023-05-10T16:59:32;9.30;;;3.60;;
57323;SDS011;43160;51.008;18.248;2023-05-10T17:09:16;15.30;;;3.90;;
57323;SDS011;43160;51.008;18.248;2023-05-10T17:18:59;11.10;;;4.00;;
57323;SDS011;43160;51.008;18.248;2023-05-10T17:28:43;9.50;;;3.70;;
57323;SDS011;43160;51.008;18.248;2023-05-10T17:38:25;10.30;;;4.00;;
57323;SDS011;43160;51.008;18.248;2023-05-10T17:48:10;9.80;;;4.20;;
57323;SDS011;43160;51.008;18.248;2023-05-10T17:57:55;12.50;;;4.70;;
57323;SDS011;43160;51.008;18.248;2023-05-10T18:07:40;18.20;;;4.20;;
57323;SDS011;43160;51.008;18.248;2023-05-10T18:17:24;12.60;;;5.10;;
57323;SDS011;43160;51.008;18.248;2023-05-10T18:27:07;12.90;;;5.00;;
57323;SDS011;43160;51.008;18.248;2023-05-10T18:36:51;13.60;;;4.80;;
57323;SDS011;43160;51.008;18.248;2023-05-10T18:46:36;15.60;;;5.80;;
57323;SDS011;43160;51.008;18.248;2023-05-10T18:56:22;11.50;;;4.90;;
57323;SDS011;43160;51.008;18.248;2023-05-10T19:06:05;9.10;;;3.10;;
57323;SDS011;43160;51.008;18.248;2023-05-10T19:16:05;12.00;;;5.20;;
57323;SDS011;43160;51.008;18.248;2023-05-10T19:25:56;12.20;;;5.10;;
57323;SDS011;43160;51.008;18.248;2023-05-10T19:35:41;12.20;;;5.00;;
57323;SDS011;43160;51.008;18.248;2023-05-10T19:45:25;13.00;;;5.50;;
57323;SDS011;43160;51.008;18.248;2023-05-10T19:55:09;14.40;;;5.60;;
57323;SDS011;43160;51.008;18.248;2023-05-10T20:04:54;14.90;;;6.10;;
57323;SDS011;43160;51.008;18.248;2023-05-10T20:14:37;12.40;;;4.70;;
57323;SDS011;43160;51.008;18.248;2023-05-10T20:24:22;13.00;;;5.60;;
57323;SDS011;43160;51.008;18.248;2023-05-10T20:34:04;24.70;;;10.30;;
57323;SDS011;43160;51.008;18.248;2023-05-10T20:43:49;19.40;;;6.40;;
57323;SDS011;43160;51.008;18.248;2023-05-10T20:53:32;13.30;;;5.90;;
57323;SDS011;43160;51.008;18.248;2023-05-10T21:03:16;21.40;;;5.60;;
57323;SDS011;43160;51.008;18.248;2023-05-10T21:12:59;11.70;;;4.10;;
57323;SDS011;43160;51.008;18.248;2023-05-10T21:30:01;16.60;;;4.40;;
57323;SDS011;43160;51.008;18.248;2023-05-10T21:39:44;10.70;;;4.50;;
57323;SDS011;43160;51.008;18.248;2023-05-10T21:49:29;13.60;;;5.20;;
57323;SDS011;43160;51.008;18.248;2023-05-10T21:59:13;14.40;;;4.70;;
57323;SDS011;43160;51.008;18.248;2023-05-10T22:08:56;15.90;;;2.80;;
57323;SDS011;43160;51.008;18.248;2023-05-10T22:18:39;15.70;;;5.90;;
57323;SDS011;43160;51.008;18.248;2023-05-10T22:28:28;12.10;;;5.20;;
57323;SDS011;43160;51.008;18.248;2023-05-10T22:38:11;11.70;;;5.00;;
57323;SDS011;43160;51.008;18.248;2023-05-10T22:47:55;15.10;;;4.60;;
57323;SDS011;43160;51.008;18.248;2023-05-10T23:04:56;20.40;;;6.90;;
57323;SDS011;43160;51.008;18.248;2023-05-10T23:14:39;16.60;;;5.30;;
57323;SDS011;43160;51.008;18.248;2023-05-10T23:24:24;11.80;;;4.80;;
57323;SDS011;43160;51.008;18.248;2023-05-10T23:34:13;19.10;;;6.30;;
57323;SDS011;43160;51.008;18.248;2023-05-10T23:43:56;13.70;;;5.50;;
57323;SDS011;43160;51.008;18.248;2023-05-10T23:53:39;13.90;;;4.50;;
